sensor_id;sensor_type;location;lat;lon;timestamp;P1;durP1;ratioP1;P2;durP2;ratioP2
6463;SDS011;3265;42.694;23.282;2022-10-03T00:02:06;9.47;;;6.20;;
6463;SDS011;3265;42.694;23.282;2022-10-03T00:04:44;12.73;;;6.10;;
6463;SDS011;3265;42.694;23.282;2022-10-03T00:07:26;10.07;;;6.27;;
6463;SDS011;3265;42.694;23.282;2022-10-03T00:10:09;10.57;;;6.23;;
6463;SDS011;3265;42.694;23.282;2022-10-03T00:12:49;9.50;;;6.07;;
6463;SDS011;3265;42.694;23.282;2022-10-03T00:15:31;11.00;;;5.90;;
6463;SDS011;3265;42.694;23.282;2022-10-03T00:18:07;9.70;;;6.17;;
6463;SDS011;3265;42.694;23.282;2022-10-03T00:20:45;10.03;;;5.73;;
6463;SDS011;3265;42.694;23.282;2022-10-03T00:23:21;10.80;;;5.60;;
6463;SDS011;3265;42.694;23.282;2022-10-03T00:26:01;12.73;;;5.90;;
6463;SDS011;3265;42.694;23.282;2022-10-03T00:28:49;9.97;;;5.30;;
6463;SDS011;3265;42.694;23.282;2022-10-03T00:31:32;12.20;;;5.20;;
6463;SDS011;3265;42.694;23.282;2022-10-03T00:34:10;7.63;;;4.90;;
6463;SDS011;3265;42.694;23.282;2022-10-03T00:36:48;8.57;;;4.63;;
6463;SDS011;3265;42.694;23.282;2022-10-03T00:39:28;10.00;;;5.47;;
6463;SDS011;3265;42.694;23.282;2022-10-03T00:48:20;6.93;;;4.60;;
6463;SDS011;3265;42.694;23.282;2022-10-03T00:51:17;11.33;;;4.70;;
6463;SDS011;3265;42.694;23.282;2022-10-03T00:54:06;12.57;;;5.53;;
6463;SDS011;3265;42.694;23.282;2022-10-03T00:56:56;6.90;;;4.63;;
6463;SDS011;3265;42.694;23.282;2022-10-03T00:59:43;12.33;;;5.43;;
6463;SDS011;3265;42.694;23.282;2022-10-03T01:02:26;9.20;;;4.90;;
6463;SDS011;3265;42.694;23.282;2022-10-03T01:05:03;10.80;;;5.20;;
6463;SDS011;3265;42.694;23.282;2022-10-03T01:10:42;10.30;;;5.03;;
6463;SDS011;3265;42.694;23.282;2022-10-03T01:13:22;7.83;;;4.57;;
6463;SDS011;3265;42.694;23.282;2022-10-03T01:15:59;6.47;;;3.50;;
6463;SDS011;3265;42.694;23.282;2022-10-03T01:18:40;5.93;;;3.50;;
6463;SDS011;3265;42.694;23.282;2022-10-03T01:21:18;7.03;;;4.30;;
6463;SDS011;3265;42.694;23.282;2022-10-03T01:24:08;5.87;;;3.80;;
6463;SDS011;3265;42.694;23.282;2022-10-03T01:27:00;10.30;;;4.73;;
6463;SDS011;3265;42.694;23.282;2022-10-03T01:29:35;7.90;;;4.30;;
6463;SDS011;3265;42.694;23.282;2022-10-03T01:32:25;7.10;;;4.33;;
6463;SDS011;3265;42.694;23.282;2022-10-03T01:34:59;6.30;;;4.20;;
6463;SDS011;3265;42.694;23.282;2022-10-03T01:37:37;5.30;;;3.73;;
6463;SDS011;3265;42.694;23.282;2022-10-03T01:40:12;8.63;;;5.80;;
6463;SDS011;3265;42.694;23.282;2022-10-03T01:42:53;6.23;;;4.37;;
6463;SDS011;3265;42.694;23.282;2022-10-03T01:45:29;10.67;;;4.40;;
6463;SDS011;3265;42.694;23.282;2022-10-03T01:48:05;7.53;;;4.10;;
6463;SDS011;3265;42.694;23.282;2022-10-03T01:50:37;6.07;;;3.83;;
6463;SDS011;3265;42.694;23.282;2022-10-03T01:53:13;4.90;;;3.97;;
6463;SDS011;3265;42.694;23.282;2022-10-03T01:55:53;5.77;;;3.60;;
6463;SDS011;3265;42.694;23.282;2022-10-03T01:58:32;9.60;;;3.67;;
6463;SDS011;3265;42.694;23.282;2022-10-03T02:01:08;7.97;;;4.03;;
6463;SDS011;3265;42.694;23.282;2022-10-03T02:03:45;7.20;;;3.80;;
6463;SDS011;3265;42.694;23.282;2022-10-03T02:06:23;7.40;;;3.80;;
6463;SDS011;3265;42.694;23.282;2022-10-03T02:08:59;6.93;;;3.60;;
6463;SDS011;3265;42.694;23.282;2022-10-03T02:11:34;10.23;;;4.00;;
6463;SDS011;3265;42.694;23.282;2022-10-03T02:14:07;10.03;;;3.80;;
6463;SDS011;3265;42.694;23.282;2022-10-03T02:16:52;8.63;;;4.07;;
6463;SDS011;3265;42.694;23.282;2022-10-03T02:19:25;11.10;;;3.77;;
6463;SDS011;3265;42.694;23.282;2022-10-03T02:21:55;5.73;;;3.87;;
6463;SDS011;3265;42.694;23.282;2022-10-03T02:24:38;6.87;;;4.10;;
6463;SDS011;3265;42.694;23.282;2022-10-03T02:27:17;10.10;;;3.80;;
6463;SDS011;3265;42.694;23.282;2022-10-03T02:30:08;9.70;;;4.27;;
6463;SDS011;3265;42.694;23.282;2022-10-03T02:33:02;9.87;;;3.67;;
6463;SDS011;3265;42.694;23.282;2022-10-03T02:42:34;13.70;;;4.60;;
6463;SDS011;3265;42.694;23.282;2022-10-03T02:51:48;7.37;;;3.97;;
6463;SDS011;3265;42.694;23.282;2022-10-03T03:00:57;5.90;;;3.30;;
6463;SDS011;3265;42.694;23.282;2022-10-03T03:03:51;9.90;;;3.73;;
6463;SDS011;3265;42.694;23.282;2022-10-03T03:06:54;13.33;;;4.03;;
6463;SDS011;3265;42.694;23.282;2022-10-03T03:09:52;8.83;;;4.13;;
6463;SDS011;3265;42.694;23.282;2022-10-03T03:18:53;7.70;;;3.93;;
6463;SDS011;3265;42.694;23.282;2022-10-03T03:21:33;11.00;;;4.10;;
6463;SDS011;3265;42.694;23.282;2022-10-03T03:24:14;10.10;;;5.07;;
6463;SDS011;3265;42.694;23.282;2022-10-03T03:26:59;9.80;;;5.23;;
6463;SDS011;3265;42.694;23.282;2022-10-03T03:29:41;12.90;;;5.13;;
6463;SDS011;3265;42.694;23.282;2022-10-03T03:32:19;17.83;;;8.83;;
6463;SDS011;3265;42.694;23.282;2022-10-03T03:34:57;16.50;;;9.70;;
6463;SDS011;3265;42.694;23.282;2022-10-03T03:37:33;17.03;;;9.70;;
6463;SDS011;3265;42.694;23.282;2022-10-03T03:40:12;15.13;;;9.30;;
6463;SDS011;3265;42.694;23.282;2022-10-03T03:43:01;13.63;;;8.90;;
6463;SDS011;3265;42.694;23.282;2022-10-03T03:45:42;12.57;;;8.87;;
6463;SDS011;3265;42.694;23.282;2022-10-03T03:51:34;16.53;;;8.40;;
6463;SDS011;3265;42.694;23.282;2022-10-03T03:57:49;10.13;;;5.27;;
6463;SDS011;3265;42.694;23.282;2022-10-03T04:00:28;9.60;;;6.03;;
6463;SDS011;3265;42.694;23.282;2022-10-03T04:03:06;12.27;;;7.03;;
6463;SDS011;3265;42.694;23.282;2022-10-03T04:05:53;12.37;;;7.10;;
6463;SDS011;3265;42.694;23.282;2022-10-03T04:08:35;12.87;;;8.27;;
6463;SDS011;3265;42.694;23.282;2022-10-03T04:11:24;15.77;;;8.73;;
6463;SDS011;3265;42.694;23.282;2022-10-03T04:14:08;20.10;;;9.57;;
6463;SDS011;3265;42.694;23.282;2022-10-03T04:17:01;20.87;;;9.80;;
6463;SDS011;3265;42.694;23.282;2022-10-03T04:20:01;31.50;;;9.87;;
6463;SDS011;3265;42.694;23.282;2022-10-03T04:22:42;21.07;;;9.77;;
6463;SDS011;3265;42.694;23.282;2022-10-03T04:28:30;19.83;;;11.67;;
6463;SDS011;3265;42.694;23.282;2022-10-03T04:31:08;27.30;;;11.50;;
6463;SDS011;3265;42.694;23.282;2022-10-03T04:33:51;21.63;;;10.57;;
6463;SDS011;3265;42.694;23.282;2022-10-03T04:36:37;22.50;;;10.97;;
6463;SDS011;3265;42.694;23.282;2022-10-03T04:39:19;22.73;;;9.60;;
6463;SDS011;3265;42.694;23.282;2022-10-03T04:41:52;26.57;;;10.17;;
6463;SDS011;3265;42.694;23.282;2022-10-03T04:44:31;32.27;;;9.17;;
6463;SDS011;3265;42.694;23.282;2022-10-03T04:47:18;20.67;;;9.47;;
6463;SDS011;3265;42.694;23.282;2022-10-03T04:49:52;22.53;;;9.60;;
6463;SDS011;3265;42.694;23.282;2022-10-03T04:52:26;27.00;;;9.77;;
6463;SDS011;3265;42.694;23.282;2022-10-03T04:55:05;17.00;;;7.77;;
6463;SDS011;3265;42.694;23.282;2022-10-03T04:57:48;19.97;;;6.87;;
6463;SDS011;3265;42.694;23.282;2022-10-03T05:00:20;17.13;;;6.13;;
6463;SDS011;3265;42.694;23.282;2022-10-03T05:02:52;14.43;;;5.60;;
6463;SDS011;3265;42.694;23.282;2022-10-03T05:08:34;21.37;;;7.17;;
6463;SDS011;3265;42.694;23.282;2022-10-03T05:11:12;19.23;;;6.67;;
6463;SDS011;3265;42.694;23.282;2022-10-03T05:13:53;26.17;;;9.20;;
6463;SDS011;3265;42.694;23.282;2022-10-03T05:19:22;26.87;;;8.60;;
6463;SDS011;3265;42.694;23.282;2022-10-03T05:22:07;28.33;;;9.33;;
6463;SDS011;3265;42.694;23.282;2022-10-03T05:24:42;22.57;;;7.80;;
6463;SDS011;3265;42.694;23.282;2022-10-03T05:27:18;23.63;;;8.57;;
6463;SDS011;3265;42.694;23.282;2022-10-03T05:29:55;27.20;;;7.80;;
6463;SDS011;3265;42.694;23.282;2022-10-03T05:32:29;17.63;;;6.97;;
6463;SDS011;3265;42.694;23.282;2022-10-03T05:35:12;19.73;;;6.80;;
6463;SDS011;3265;42.694;23.282;2022-10-03T05:38:06;21.80;;;7.73;;
6463;SDS011;3265;42.694;23.282;2022-10-03T05:41:02;19.33;;;8.10;;
6463;SDS011;3265;42.694;23.282;2022-10-03T05:43:44;24.17;;;7.30;;
6463;SDS011;3265;42.694;23.282;2022-10-03T05:46:28;18.67;;;7.33;;
6463;SDS011;3265;42.694;23.282;2022-10-03T05:49:22;9.50;;;5.90;;
6463;SDS011;3265;42.694;23.282;2022-10-03T05:52:05;13.47;;;6.10;;
6463;SDS011;3265;42.694;23.282;2022-10-03T05:54:52;9.73;;;5.57;;
6463;SDS011;3265;42.694;23.282;2022-10-03T05:57:42;17.03;;;5.57;;
6463;SDS011;3265;42.694;23.282;2022-10-03T06:00:26;13.83;;;5.43;;
6463;SDS011;3265;42.694;23.282;2022-10-03T06:03:14;10.73;;;5.27;;
6463;SDS011;3265;42.694;23.282;2022-10-03T06:06:02;15.93;;;5.40;;
6463;SDS011;3265;42.694;23.282;2022-10-03T06:08:59;10.67;;;5.17;;
6463;SDS011;3265;42.694;23.282;2022-10-03T06:11:58;16.63;;;5.50;;
6463;SDS011;3265;42.694;23.282;2022-10-03T06:14:31;14.03;;;6.47;;
6463;SDS011;3265;42.694;23.282;2022-10-03T06:17:26;15.47;;;6.13;;
6463;SDS011;3265;42.694;23.282;2022-10-03T06:20:10;15.87;;;6.33;;
6463;SDS011;3265;42.694;23.282;2022-10-03T06:23:03;13.30;;;5.67;;
6463;SDS011;3265;42.694;23.282;2022-10-03T06:25:52;20.83;;;6.90;;
6463;SDS011;3265;42.694;23.282;2022-10-03T06:28:48;17.27;;;7.43;;
6463;SDS011;3265;42.694;23.282;2022-10-03T06:34:41;15.00;;;6.20;;
6463;SDS011;3265;42.694;23.282;2022-10-03T06:37:50;12.87;;;5.83;;
6463;SDS011;3265;42.694;23.282;2022-10-03T06:52:58;14.57;;;5.57;;
6463;SDS011;3265;42.694;23.282;2022-10-03T06:58:51;12.47;;;5.17;;
6463;SDS011;3265;42.694;23.282;2022-10-03T07:04:51;11.23;;;4.80;;
6463;SDS011;3265;42.694;23.282;2022-10-03T07:07:51;15.07;;;6.87;;
6463;SDS011;3265;42.694;23.282;2022-10-03T07:10:45;20.57;;;9.37;;
6463;SDS011;3265;42.694;23.282;2022-10-03T07:13:33;18.13;;;9.53;;
6463;SDS011;3265;42.694;23.282;2022-10-03T07:16:24;22.30;;;9.40;;
6463;SDS011;3265;42.694;23.282;2022-10-03T07:22:18;13.17;;;7.50;;
6463;SDS011;3265;42.694;23.282;2022-10-03T07:25:14;18.70;;;8.10;;
6463;SDS011;3265;42.694;23.282;2022-10-03T07:30:57;20.90;;;7.27;;
6463;SDS011;3265;42.694;23.282;2022-10-03T07:33:40;20.07;;;6.93;;
6463;SDS011;3265;42.694;23.282;2022-10-03T07:36:31;9.93;;;6.50;;
6463;SDS011;3265;42.694;23.282;2022-10-03T07:39:34;16.93;;;6.57;;
6463;SDS011;3265;42.694;23.282;2022-10-03T07:45:34;12.47;;;6.93;;
6463;SDS011;3265;42.694;23.282;2022-10-03T07:48:26;15.13;;;6.17;;
6463;SDS011;3265;42.694;23.282;2022-10-03T07:51:22;17.13;;;10.50;;
6463;SDS011;3265;42.694;23.282;2022-10-03T07:54:10;24.30;;;16.17;;
6463;SDS011;3265;42.694;23.282;2022-10-03T08:00:07;20.87;;;13.90;;
6463;SDS011;3265;42.694;23.282;2022-10-03T08:06:08;28.40;;;21.67;;
6463;SDS011;3265;42.694;23.282;2022-10-03T08:11:52;11.80;;;7.60;;
6463;SDS011;3265;42.694;23.282;2022-10-03T08:14:45;8.10;;;4.10;;
6463;SDS011;3265;42.694;23.282;2022-10-03T08:20:36;11.20;;;5.67;;
6463;SDS011;3265;42.694;23.282;2022-10-03T08:26:17;10.50;;;5.00;;
6463;SDS011;3265;42.694;23.282;2022-10-03T08:29:02;13.33;;;5.40;;
6463;SDS011;3265;42.694;23.282;2022-10-03T08:32:04;10.30;;;4.40;;
6463;SDS011;3265;42.694;23.282;2022-10-03T08:35:01;7.13;;;5.20;;
6463;SDS011;3265;42.694;23.282;2022-10-03T08:37:58;6.83;;;5.10;;
6463;SDS011;3265;42.694;23.282;2022-10-03T08:43:57;9.93;;;6.67;;
6463;SDS011;3265;42.694;23.282;2022-10-03T08:52:56;17.40;;;12.97;;
6463;SDS011;3265;42.694;23.282;2022-10-03T08:55:49;15.37;;;8.70;;
6463;SDS011;3265;42.694;23.282;2022-10-03T09:07:52;7.60;;;4.47;;
6463;SDS011;3265;42.694;23.282;2022-10-03T09:10:51;10.17;;;4.33;;
6463;SDS011;3265;42.694;23.282;2022-10-03T09:16:56;7.97;;;3.27;;
6463;SDS011;3265;42.694;23.282;2022-10-03T09:19:49;5.37;;;3.03;;
6463;SDS011;3265;42.694;23.282;2022-10-03T09:22:57;3.93;;;3.13;;
6463;SDS011;3265;42.694;23.282;2022-10-03T09:26:06;4.93;;;4.00;;
6463;SDS011;3265;42.694;23.282;2022-10-03T09:28:49;10.23;;;4.83;;
6463;SDS011;3265;42.694;23.282;2022-10-03T09:31:57;4.33;;;3.40;;
6463;SDS011;3265;42.694;23.282;2022-10-03T09:35:08;6.33;;;3.20;;
6463;SDS011;3265;42.694;23.282;2022-10-03T09:38:00;5.43;;;4.00;;
6463;SDS011;3265;42.694;23.282;2022-10-03T09:40:58;7.17;;;3.20;;
6463;SDS011;3265;42.694;23.282;2022-10-03T09:43:49;3.53;;;2.77;;
6463;SDS011;3265;42.694;23.282;2022-10-03T09:53:15;7.20;;;3.70;;
6463;SDS011;3265;42.694;23.282;2022-10-03T09:56:10;8.13;;;3.43;;
6463;SDS011;3265;42.694;23.282;2022-10-03T09:59:00;5.50;;;4.40;;
6463;SDS011;3265;42.694;23.282;2022-10-03T10:01:44;4.40;;;3.90;;
6463;SDS011;3265;42.694;23.282;2022-10-03T10:07:29;6.37;;;3.03;;
6463;SDS011;3265;42.694;23.282;2022-10-03T10:13:33;2.87;;;2.67;;
6463;SDS011;3265;42.694;23.282;2022-10-03T10:16:36;2.80;;;2.60;;
6463;SDS011;3265;42.694;23.282;2022-10-03T10:32:03;2.83;;;2.60;;
6463;SDS011;3265;42.694;23.282;2022-10-03T10:54:08;3.73;;;2.30;;
6463;SDS011;3265;42.694;23.282;2022-10-03T10:57:15;4.53;;;2.40;;
6463;SDS011;3265;42.694;23.282;2022-10-03T11:00:17;2.93;;;2.33;;
6463;SDS011;3265;42.694;23.282;2022-10-03T11:09:30;2.50;;;2.30;;
6463;SDS011;3265;42.694;23.282;2022-10-03T11:19:12;3.10;;;2.80;;
6463;SDS011;3265;42.694;23.282;2022-10-03T11:37:29;5.40;;;4.30;;
6463;SDS011;3265;42.694;23.282;2022-10-03T11:46:10;7.90;;;4.70;;
6463;SDS011;3265;42.694;23.282;2022-10-03T11:48:49;8.07;;;4.30;;
6463;SDS011;3265;42.694;23.282;2022-10-03T11:51:34;6.47;;;4.70;;
6463;SDS011;3265;42.694;23.282;2022-10-03T11:54:10;4.70;;;4.20;;
6463;SDS011;3265;42.694;23.282;2022-10-03T11:56:45;6.33;;;4.07;;
6463;SDS011;3265;42.694;23.282;2022-10-03T11:59:29;5.80;;;4.67;;
6463;SDS011;3265;42.694;23.282;2022-10-03T12:02:04;10.33;;;4.03;;
6463;SDS011;3265;42.694;23.282;2022-10-03T12:04:55;5.33;;;4.60;;
6463;SDS011;3265;42.694;23.282;2022-10-03T12:07:38;7.40;;;4.87;;
6463;SDS011;3265;42.694;23.282;2022-10-03T12:10:35;6.50;;;5.03;;
6463;SDS011;3265;42.694;23.282;2022-10-03T12:13:09;8.43;;;6.80;;
6463;SDS011;3265;42.694;23.282;2022-10-03T12:15:41;6.40;;;5.43;;
6463;SDS011;3265;42.694;23.282;2022-10-03T12:18:13;5.23;;;4.57;;
6463;SDS011;3265;42.694;23.282;2022-10-03T12:26:40;5.97;;;4.10;;
6463;SDS011;3265;42.694;23.282;2022-10-03T12:29:15;4.10;;;3.70;;
6463;SDS011;3265;42.694;23.282;2022-10-03T12:31:46;3.90;;;3.60;;
6463;SDS011;3265;42.694;23.282;2022-10-03T12:34:27;4.40;;;3.87;;
6463;SDS011;3265;42.694;23.282;2022-10-03T12:40:01;6.00;;;5.40;;
6463;SDS011;3265;42.694;23.282;2022-10-03T12:42:36;6.72;;;4.90;;
6463;SDS011;3265;42.694;23.282;2022-10-03T12:45:13;6.68;;;5.20;;
6463;SDS011;3265;42.694;23.282;2022-10-03T12:50:53;4.47;;;4.07;;
6463;SDS011;3265;42.694;23.282;2022-10-03T12:53:32;4.20;;;3.80;;
6463;SDS011;3265;42.694;23.282;2022-10-03T12:56:10;4.28;;;3.92;;
6463;SDS011;3265;42.694;23.282;2022-10-03T12:58:54;5.65;;;4.80;;
6463;SDS011;3265;42.694;23.282;2022-10-03T13:01:37;6.22;;;4.47;;
6463;SDS011;3265;42.694;23.282;2022-10-03T13:04:19;4.05;;;3.65;;
6463;SDS011;3265;42.694;23.282;2022-10-03T13:07:01;4.35;;;3.95;;
6463;SDS011;3265;42.694;23.282;2022-10-03T13:09:48;4.55;;;3.42;;
6463;SDS011;3265;42.694;23.282;2022-10-03T13:12:26;4.30;;;3.90;;
6463;SDS011;3265;42.694;23.282;2022-10-03T13:18:14;3.85;;;3.40;;
6463;SDS011;3265;42.694;23.282;2022-10-03T13:20:57;5.78;;;3.42;;
6463;SDS011;3265;42.694;23.282;2022-10-03T13:23:36;6.03;;;3.80;;
6463;SDS011;3265;42.694;23.282;2022-10-03T13:26:13;3.70;;;3.25;;
6463;SDS011;3265;42.694;23.282;2022-10-03T13:31:50;4.50;;;3.05;;
6463;SDS011;3265;42.694;23.282;2022-10-03T13:34:31;4.40;;;3.42;;
6463;SDS011;3265;42.694;23.282;2022-10-03T13:37:03;5.55;;;2.83;;
6463;SDS011;3265;42.694;23.282;2022-10-03T13:39:38;3.72;;;3.10;;
6463;SDS011;3265;42.694;23.282;2022-10-03T13:42:13;3.10;;;2.80;;
6463;SDS011;3265;42.694;23.282;2022-10-03T13:44:47;3.22;;;2.70;;
6463;SDS011;3265;42.694;23.282;2022-10-03T13:47:24;3.05;;;2.78;;
6463;SDS011;3265;42.694;23.282;2022-10-03T13:50:12;3.72;;;3.35;;
6463;SDS011;3265;42.694;23.282;2022-10-03T13:52:43;3.47;;;3.10;;
6463;SDS011;3265;42.694;23.282;2022-10-03T13:55:16;3.65;;;3.35;;
6463;SDS011;3265;42.694;23.282;2022-10-03T13:57:54;3.95;;;3.40;;
6463;SDS011;3265;42.694;23.282;2022-10-03T14:00:31;3.67;;;3.38;;
6463;SDS011;3265;42.694;23.282;2022-10-03T14:03:14;3.70;;;3.15;;
6463;SDS011;3265;42.694;23.282;2022-10-03T14:08:54;4.43;;;2.75;;
6463;SDS011;3265;42.694;23.282;2022-10-03T14:11:37;6.27;;;2.90;;
6463;SDS011;3265;42.694;23.282;2022-10-03T14:14:17;2.95;;;2.42;;
6463;SDS011;3265;42.694;23.282;2022-10-03T14:17:16;7.07;;;3.00;;
6463;SDS011;3265;42.694;23.282;2022-10-03T14:19:55;6.32;;;3.08;;
6463;SDS011;3265;42.694;23.282;2022-10-03T14:22:36;4.43;;;2.97;;
6463;SDS011;3265;42.694;23.282;2022-10-03T14:25:18;3.47;;;2.77;;
6463;SDS011;3265;42.694;23.282;2022-10-03T14:27:49;4.77;;;2.97;;
6463;SDS011;3265;42.694;23.282;2022-10-03T14:30:19;3.30;;;2.73;;
6463;SDS011;3265;42.694;23.282;2022-10-03T14:32:52;4.03;;;2.90;;
6463;SDS011;3265;42.694;23.282;2022-10-03T14:35:37;4.20;;;2.90;;
6463;SDS011;3265;42.694;23.282;2022-10-03T14:38:14;4.60;;;3.17;;
6463;SDS011;3265;42.694;23.282;2022-10-03T14:41:09;6.00;;;3.30;;
6463;SDS011;3265;42.694;23.282;2022-10-03T14:43:44;3.97;;;3.03;;
6463;SDS011;3265;42.694;23.282;2022-10-03T14:46:16;4.40;;;2.90;;
6463;SDS011;3265;42.694;23.282;2022-10-03T14:48:45;7.97;;;3.20;;
6463;SDS011;3265;42.694;23.282;2022-10-03T14:51:18;5.30;;;4.20;;
6463;SDS011;3265;42.694;23.282;2022-10-03T14:53:50;6.50;;;3.87;;
6463;SDS011;3265;42.694;23.282;2022-10-03T14:56:21;4.87;;;4.27;;
6463;SDS011;3265;42.694;23.282;2022-10-03T14:58:50;4.63;;;4.10;;
6463;SDS011;3265;42.694;23.282;2022-10-03T15:01:19;7.07;;;4.70;;
6463;SDS011;3265;42.694;23.282;2022-10-03T15:03:52;9.63;;;4.23;;
6463;SDS011;3265;42.694;23.282;2022-10-03T15:06:31;9.40;;;5.63;;
6463;SDS011;3265;42.694;23.282;2022-10-03T15:09:01;5.90;;;4.43;;
6463;SDS011;3265;42.694;23.282;2022-10-03T15:11:34;5.93;;;4.93;;
6463;SDS011;3265;42.694;23.282;2022-10-03T15:14:09;10.47;;;5.67;;
6463;SDS011;3265;42.694;23.282;2022-10-03T15:16:38;7.20;;;5.10;;
6463;SDS011;3265;42.694;23.282;2022-10-03T15:19:16;6.73;;;5.07;;
6463;SDS011;3265;42.694;23.282;2022-10-03T15:21:49;5.57;;;4.80;;
6463;SDS011;3265;42.694;23.282;2022-10-03T15:24:19;5.70;;;4.90;;
6463;SDS011;3265;42.694;23.282;2022-10-03T15:26:50;6.43;;;4.73;;
6463;SDS011;3265;42.694;23.282;2022-10-03T15:29:23;8.43;;;5.27;;
6463;SDS011;3265;42.694;23.282;2022-10-03T15:31:51;8.17;;;4.90;;
6463;SDS011;3265;42.694;23.282;2022-10-03T15:34:22;11.63;;;5.47;;
6463;SDS011;3265;42.694;23.282;2022-10-03T15:36:52;7.27;;;4.40;;
6463;SDS011;3265;42.694;23.282;2022-10-03T15:39:24;5.07;;;4.37;;
6463;SDS011;3265;42.694;23.282;2022-10-03T15:41:54;7.63;;;5.67;;
6463;SDS011;3265;42.694;23.282;2022-10-03T15:44:29;9.47;;;5.70;;
6463;SDS011;3265;42.694;23.282;2022-10-03T15:47:03;6.13;;;4.87;;
6463;SDS011;3265;42.694;23.282;2022-10-03T15:49:35;8.33;;;5.03;;
6463;SDS011;3265;42.694;23.282;2022-10-03T15:52:09;12.13;;;6.50;;
6463;SDS011;3265;42.694;23.282;2022-10-03T15:54:45;9.63;;;5.67;;
6463;SDS011;3265;42.694;23.282;2022-10-03T15:57:16;8.40;;;6.20;;
6463;SDS011;3265;42.694;23.282;2022-10-03T15:59:50;11.07;;;6.63;;
6463;SDS011;3265;42.694;23.282;2022-10-03T16:02:25;11.07;;;6.50;;
6463;SDS011;3265;42.694;23.282;2022-10-03T16:04:58;8.67;;;5.47;;
6463;SDS011;3265;42.694;23.282;2022-10-03T16:07:31;7.43;;;5.70;;
6463;SDS011;3265;42.694;23.282;2022-10-03T16:10:13;10.33;;;7.30;;
6463;SDS011;3265;42.694;23.282;2022-10-03T16:12:54;12.23;;;7.93;;
6463;SDS011;3265;42.694;23.282;2022-10-03T16:15:25;12.23;;;7.37;;
6463;SDS011;3265;42.694;23.282;2022-10-03T16:18:03;12.07;;;7.07;;
6463;SDS011;3265;42.694;23.282;2022-10-03T16:20:36;11.83;;;5.97;;
6463;SDS011;3265;42.694;23.282;2022-10-03T16:23:13;13.30;;;6.83;;
6463;SDS011;3265;42.694;23.282;2022-10-03T16:25:45;9.33;;;6.27;;
6463;SDS011;3265;42.694;23.282;2022-10-03T16:28:16;10.97;;;6.13;;
6463;SDS011;3265;42.694;23.282;2022-10-03T16:30:49;10.80;;;6.90;;
6463;SDS011;3265;42.694;23.282;2022-10-03T16:33:22;11.47;;;7.53;;
6463;SDS011;3265;42.694;23.282;2022-10-03T16:35:52;11.23;;;7.43;;
6463;SDS011;3265;42.694;23.282;2022-10-03T16:38:25;15.30;;;8.23;;
6463;SDS011;3265;42.694;23.282;2022-10-03T16:40:57;13.60;;;8.50;;
6463;SDS011;3265;42.694;23.282;2022-10-03T16:43:27;12.47;;;7.63;;
6463;SDS011;3265;42.694;23.282;2022-10-03T16:45:58;8.80;;;6.03;;
6463;SDS011;3265;42.694;23.282;2022-10-03T16:48:27;6.53;;;5.17;;
6463;SDS011;3265;42.694;23.282;2022-10-03T16:51:16;11.27;;;5.90;;
6463;SDS011;3265;42.694;23.282;2022-10-03T16:53:46;10.93;;;6.90;;
6463;SDS011;3265;42.694;23.282;2022-10-03T16:56:15;12.20;;;7.37;;
6463;SDS011;3265;42.694;23.282;2022-10-03T16:58:47;8.27;;;5.00;;
6463;SDS011;3265;42.694;23.282;2022-10-03T17:01:21;11.73;;;6.00;;
6463;SDS011;3265;42.694;23.282;2022-10-03T17:03:54;10.07;;;7.10;;
6463;SDS011;3265;42.694;23.282;2022-10-03T17:06:26;13.27;;;8.30;;
6463;SDS011;3265;42.694;23.282;2022-10-03T17:08:59;10.80;;;7.30;;
6463;SDS011;3265;42.694;23.282;2022-10-03T17:11:32;9.30;;;6.07;;
6463;SDS011;3265;42.694;23.282;2022-10-03T17:14:04;10.00;;;5.40;;
6463;SDS011;3265;42.694;23.282;2022-10-03T17:16:34;12.50;;;7.43;;
6463;SDS011;3265;42.694;23.282;2022-10-03T17:19:17;14.73;;;9.90;;
6463;SDS011;3265;42.694;23.282;2022-10-03T17:21:52;17.30;;;10.17;;
6463;SDS011;3265;42.694;23.282;2022-10-03T17:24:26;15.33;;;8.97;;
6463;SDS011;3265;42.694;23.282;2022-10-03T17:27:01;15.77;;;9.53;;
6463;SDS011;3265;42.694;23.282;2022-10-03T17:29:36;11.03;;;7.10;;
6463;SDS011;3265;42.694;23.282;2022-10-03T17:32:11;13.50;;;8.07;;
6463;SDS011;3265;42.694;23.282;2022-10-03T17:34:45;12.10;;;7.40;;
6463;SDS011;3265;42.694;23.282;2022-10-03T17:37:19;10.27;;;6.53;;
6463;SDS011;3265;42.694;23.282;2022-10-03T17:40:11;12.27;;;7.23;;
6463;SDS011;3265;42.694;23.282;2022-10-03T17:42:46;13.07;;;8.17;;
6463;SDS011;3265;42.694;23.282;2022-10-03T17:45:32;15.83;;;9.17;;
6463;SDS011;3265;42.694;23.282;2022-10-03T17:48:11;13.73;;;8.37;;
6463;SDS011;3265;42.694;23.282;2022-10-03T17:50:47;14.00;;;8.50;;
6463;SDS011;3265;42.694;23.282;2022-10-03T17:53:24;12.40;;;7.57;;
6463;SDS011;3265;42.694;23.282;2022-10-03T17:55:55;10.90;;;6.47;;
6463;SDS011;3265;42.694;23.282;2022-10-03T17:58:27;10.73;;;7.27;;
6463;SDS011;3265;42.694;23.282;2022-10-03T18:00:58;11.50;;;6.97;;
6463;SDS011;3265;42.694;23.282;2022-10-03T18:03:33;10.10;;;6.50;;
6463;SDS011;3265;42.694;23.282;2022-10-03T18:09:05;13.80;;;6.47;;
6463;SDS011;3265;42.694;23.282;2022-10-03T18:11:37;9.93;;;6.03;;
6463;SDS011;3265;42.694;23.282;2022-10-03T18:14:10;13.10;;;7.33;;
6463;SDS011;3265;42.694;23.282;2022-10-03T18:16:45;16.00;;;8.77;;
6463;SDS011;3265;42.694;23.282;2022-10-03T18:19:24;13.27;;;8.03;;
6463;SDS011;3265;42.694;23.282;2022-10-03T18:22:04;14.93;;;8.87;;
6463;SDS011;3265;42.694;23.282;2022-10-03T18:24:52;19.97;;;9.13;;
6463;SDS011;3265;42.694;23.282;2022-10-03T18:27:45;15.37;;;8.90;;
6463;SDS011;3265;42.694;23.282;2022-10-03T18:30:28;12.17;;;7.23;;
6463;SDS011;3265;42.694;23.282;2022-10-03T18:32:59;9.47;;;5.87;;
6463;SDS011;3265;42.694;23.282;2022-10-03T18:35:30;10.83;;;6.30;;
6463;SDS011;3265;42.694;23.282;2022-10-03T18:38:04;8.67;;;4.80;;
6463;SDS011;3265;42.694;23.282;2022-10-03T18:40:47;8.40;;;5.23;;
6463;SDS011;3265;42.694;23.282;2022-10-03T18:43:27;7.10;;;4.67;;
6463;SDS011;3265;42.694;23.282;2022-10-03T18:48:53;6.67;;;4.10;;
6463;SDS011;3265;42.694;23.282;2022-10-03T18:51:30;9.50;;;4.53;;
6463;SDS011;3265;42.694;23.282;2022-10-03T18:54:02;7.17;;;4.80;;
6463;SDS011;3265;42.694;23.282;2022-10-03T18:56:34;6.80;;;4.20;;
6463;SDS011;3265;42.694;23.282;2022-10-03T18:59:09;9.83;;;3.30;;
6463;SDS011;3265;42.694;23.282;2022-10-03T19:01:47;3.70;;;3.17;;
6463;SDS011;3265;42.694;23.282;2022-10-03T19:04:31;8.13;;;3.50;;
6463;SDS011;3265;42.694;23.282;2022-10-03T19:07:09;8.43;;;3.50;;
6463;SDS011;3265;42.694;23.282;2022-10-03T19:10:00;5.77;;;3.53;;
6463;SDS011;3265;42.694;23.282;2022-10-03T19:12:39;3.90;;;3.13;;
6463;SDS011;3265;42.694;23.282;2022-10-03T19:15:15;5.73;;;3.33;;
6463;SDS011;3265;42.694;23.282;2022-10-03T19:17:50;7.53;;;4.10;;
6463;SDS011;3265;42.694;23.282;2022-10-03T19:20:30;11.17;;;7.60;;
6463;SDS011;3265;42.694;23.282;2022-10-03T19:23:09;15.23;;;9.73;;
6463;SDS011;3265;42.694;23.282;2022-10-03T19:25:43;12.27;;;7.47;;
6463;SDS011;3265;42.694;23.282;2022-10-03T19:28:17;9.30;;;5.23;;
6463;SDS011;3265;42.694;23.282;2022-10-03T19:30:57;6.00;;;3.87;;
6463;SDS011;3265;42.694;23.282;2022-10-03T19:33:55;7.63;;;4.23;;
6463;SDS011;3265;42.694;23.282;2022-10-03T19:36:35;7.17;;;3.83;;
6463;SDS011;3265;42.694;23.282;2022-10-03T19:39:05;9.33;;;3.80;;
6463;SDS011;3265;42.694;23.282;2022-10-03T19:41:41;5.80;;;3.20;;
6463;SDS011;3265;42.694;23.282;2022-10-03T19:44:15;6.33;;;3.60;;
6463;SDS011;3265;42.694;23.282;2022-10-03T19:49:46;9.03;;;3.50;;
6463;SDS011;3265;42.694;23.282;2022-10-03T19:52:23;8.83;;;3.80;;
6463;SDS011;3265;42.694;23.282;2022-10-03T19:54:54;7.40;;;4.07;;
6463;SDS011;3265;42.694;23.282;2022-10-03T19:57:26;5.13;;;3.53;;
6463;SDS011;3265;42.694;23.282;2022-10-03T20:00:03;10.83;;;3.87;;
6463;SDS011;3265;42.694;23.282;2022-10-03T20:02:34;10.63;;;4.00;;
6463;SDS011;3265;42.694;23.282;2022-10-03T20:05:01;6.93;;;3.70;;
6463;SDS011;3265;42.694;23.282;2022-10-03T20:07:39;7.93;;;3.77;;